Time;durP1;ratioP1;P1;durP2;ratioP2;P2;SDS_P1;SDS_P2;PMS_P1;PMS_P2;Temp;Humidity;BMP_temperature;BMP_pressure;BME280_temperature;BME280_humidity;BME280_pressure;Samples;Min_cycle;Max_cycle;Signal;HPM_P1;HPM_P2
2021/11/15 00:00:19;;;;;;;48.20;28.17;;;8.00;99.90;;;;;;5068825;28;20161;-63
2021/11/15 00:02:45;;;;;;;47.10;28.40;;;8.00;99.90;;;;;;5068679;28;20204;-63
2021/11/15 00:05:11;;;;;;;44.47;27.30;;;8.00;99.90;;;;;;5068476;28;20669;-63
2021/11/15 00:07:38;;;;;;;46.33;28.43;;;8.00;99.90;;;;;;5068643;28;20527;-63
2021/11/15 00:10:07;;;;;;;46.13;29.07;;;8.00;99.90;;;;;;5068525;28;20157;-63
2021/11/15 00:12:33;;;;;;;48.77;28.17;;;7.90;99.90;;;;;;5067872;28;20198;-63
2021/11/15 00:14:58;;;;;;;44.17;28.60;;;7.90;99.90;;;;;;5068034;28;20173;-63
2021/11/15 00:17:24;;;;;;;49.17;27.77;;;7.90;99.90;;;;;;5068154;28;20640;-63
2021/11/15 00:19:50;;;;;;;45.63;26.77;;;7.90;99.90;;;;;;5068216;28;20673;-63
2021/11/15 00:22:15;;;;;;;46.40;27.93;;;7.80;99.90;;;;;;5067548;28;20199;-63
2021/11/15 00:24:41;;;;;;;45.50;27.70;;;7.80;99.90;;;;;;5068148;28;20157;-63
2021/11/15 00:27:07;;;;;;;42.27;26.33;;;7.80;99.90;;;;;;5068332;28;20177;-63
2021/11/15 00:29:33;;;;;;;43.60;26.73;;;7.80;99.90;;;;;;5068449;28;20165;-63
2021/11/15 00:31:58;;;;;;;48.07;27.13;;;7.80;99.90;;;;;;5067939;28;20196;-63
2021/11/15 00:34:24;;;;;;;45.60;28.30;;;7.70;99.90;;;;;;5067746;28;20268;-63
2021/11/15 00:36:49;;;;;;;48.63;27.83;;;7.70;99.90;;;;;;5067935;28;20172;-62
2021/11/15 00:39:15;;;;;;;51.03;27.30;;;7.70;99.90;;;;;;5068273;28;20172;-63
2021/11/15 00:41:41;;;;;;;52.50;28.83;;;7.70;99.90;;;;;;5068044;28;20168;-63
2021/11/15 00:44:07;;;;;;;48.10;28.37;;;7.60;99.90;;;;;;5066609;28;20168;-63
2021/11/15 00:46:33;;;;;;;50.57;28.90;;;7.70;99.90;;;;;;5067769;28;20188;-64
2021/11/15 00:48:59;;;;;;;51.07;28.97;;;7.70;99.90;;;;;;5067689;28;20161;-63
2021/11/15 00:51:26;;;;;;;50.70;29.97;;;7.70;99.90;;;;;;5067934;28;20157;-62
2021/11/15 00:53:52;;;;;;;49.30;28.63;;;7.70;99.90;;;;;;5067626;28;20724;-63
2021/11/15 00:56:18;;;;;;;45.43;28.20;;;7.70;99.90;;;;;;5067653;28;20188;-63
2021/11/15 00:58:44;;;;;;;45.73;27.47;;;7.70;99.90;;;;;;5067790;28;20169;-63
2021/11/15 01:01:10;;;;;;;43.57;26.03;;;7.70;99.90;;;;;;5067580;28;20226;-63
2021/11/15 01:03:36;;;;;;;50.50;26.13;;;7.70;99.90;;;;;;5067038;28;20287;-63
2021/11/15 01:06:02;;;;;;;40.53;26.07;;;7.70;99.90;;;;;;5067331;28;20168;-63
2021/11/15 01:08:28;;;;;;;42.90;26.93;;;7.60;99.90;;;;;;5067661;28;20164;-63
2021/11/15 01:10:54;;;;;;;43.40;26.17;;;7.60;99.90;;;;;;5067313;28;20163;-63
2021/11/15 01:13:21;;;;;;;41.90;26.00;;;7.50;99.90;;;;;;5067177;28;20212;-63
2021/11/15 01:15:47;;;;;;;42.63;26.00;;;7.50;99.90;;;;;;5067186;28;20165;-63
2021/11/15 01:18:12;;;;;;;43.40;26.77;;;7.50;99.90;;;;;;5066768;28;20199;-63
2021/11/15 01:20:38;;;;;;;41.10;25.83;;;7.40;99.90;;;;;;5067372;28;20141;-63
2021/11/15 01:23:06;;;;;;;41.17;26.00;;;7.40;99.90;;;;;;5067032;28;20207;-63
2021/11/15 01:25:32;;;;;;;40.43;25.17;;;7.40;99.90;;;;;;5067092;28;20210;-63
2021/11/15 01:27:57;;;;;;;45.27;26.67;;;7.40;99.90;;;;;;5067274;28;20167;-63
2021/11/15 01:30:23;;;;;;;48.57;26.57;;;7.40;99.90;;;;;;5067128;28;20592;-63
2021/11/15 01:32:49;;;;;;;45.70;26.00;;;7.40;99.90;;;;;;5066285;28;20194;-63
2021/11/15 01:35:15;;;;;;;43.37;27.10;;;7.40;99.90;;;;;;5066431;28;20238;-63
2021/11/15 01:37:42;;;;;;;49.10;26.73;;;7.40;99.90;;;;;;5066929;28;20167;-63
2021/11/15 01:40:11;;;;;;;44.43;26.87;;;7.40;99.90;;;;;;5067009;28;20206;-63
2021/11/15 01:42:37;;;;;;;49.67;26.83;;;7.40;99.90;;;;;;5066887;28;20641;-63
2021/11/15 01:45:04;;;;;;;47.47;25.67;;;7.40;99.90;;;;;;5066653;28;20157;-63
2021/11/15 01:47:30;;;;;;;44.40;25.73;;;7.40;99.90;;;;;;5066533;28;20167;-63
2021/11/15 01:49:56;;;;;;;42.60;25.50;;;7.40;99.90;;;;;;5066541;28;20263;-63
2021/11/15 01:52:22;;;;;;;45.27;27.37;;;7.30;99.90;;;;;;5067150;28;20161;-63
2021/11/15 01:54:48;;;;;;;41.63;25.70;;;7.30;99.90;;;;;;5066536;28;20682;-63
2021/11/15 01:57:14;;;;;;;46.33;27.70;;;7.30;99.90;;;;;;5066541;28;20179;-63
2021/11/15 01:59:40;;;;;;;43.53;25.80;;;7.30;99.90;;;;;;5066872;28;20172;-63
2021/11/15 02:02:06;;;;;;;42.40;26.03;;;7.30;99.90;;;;;;5066440;28;20180;-63
2021/11/15 02:04:32;;;;;;;47.20;26.53;;;7.30;99.90;;;;;;5064943;28;20173;-63
2021/11/15 02:06:58;;;;;;;45.90;26.17;;;7.30;99.90;;;;;;5066316;28;20172;-63
2021/11/15 02:09:24;;;;;;;43.87;26.03;;;7.30;99.90;;;;;;5065258;28;20171;-63
2021/11/15 02:11:50;;;;;;;44.63;25.97;;;7.30;99.90;;;;;;5066341;28;20233;-63
2021/11/15 02:14:16;;;;;;;43.50;26.37;;;7.30;99.90;;;;;;5066322;28;20213;-63
2021/11/15 02:16:42;;;;;;;47.77;28.03;;;7.30;99.90;;;;;;5066162;28;20557;-63
2021/11/15 02:19:08;;;;;;;51.93;27.97;;;7.20;99.90;;;;;;5066014;28;20172;-63
2021/11/15 02:21:33;;;;;;;54.57;28.20;;;7.20;99.90;;;;;;5066359;28;20167;-63
2021/11/15 02:23:59;;;;;;;51.23;28.53;;;7.20;99.90;;;;;;5066176;28;20207;-63
2021/11/15 02:26:25;;;;;;;52.63;29.47;;;7.30;99.90;;;;;;5066076;28;20169;-63
2021/11/15 02:28:52;;;;;;;54.23;29.47;;;7.30;99.90;;;;;;5066387;28;20168;-63
2021/11/15 02:31:27;;;;;;;54.60;30.40;;;7.30;99.90;;;;;;5066008;28;20165;-63
2021/11/15 02:33:58;;;;;;;55.17;30.47;;;7.30;99.90;;;;;;5065865;28;20214;-63
2021/11/15 02:36:27;;;;;;;51.83;30.30;;;7.30;99.90;;;;;;5066039;28;20240;-63
2021/11/15 02:38:53;;;;;;;55.63;29.50;;;7.30;99.90;;;;;;5066171;28;20169;-63
2021/11/15 02:41:20;;;;;;;56.43;31.30;;;7.30;99.90;;;;;;5066031;28;20164;-63
2021/11/15 02:43:47;;;;;;;59.03;31.73;;;7.30;99.90;;;;;;5066058;28;20188;-63
2021/11/15 02:46:14;;;;;;;51.77;28.93;;;7.30;99.90;;;;;;5069698;28;20585;-63
2021/11/15 02:48:40;;;;;;;53.47;30.13;;;7.40;99.90;;;;;;5069868;28;20165;-63
2021/11/15 02:51:07;;;;;;;54.13;28.07;;;7.40;99.90;;;;;;5070150;28;20163;-63
2021/11/15 02:53:33;;;;;;;46.97;29.43;;;7.30;99.90;;;;;;5070048;28;20169;-63
2021/11/15 02:55:59;;;;;;;48.87;27.47;;;7.40;99.90;;;;;;5069918;28;20340;-63
2021/11/15 02:58:25;;;;;;;51.77;27.97;;;7.40;99.90;;;;;;5070043;28;20532;-63
2021/11/15 03:00:55;;;;;;;51.70;29.13;;;7.40;99.90;;;;;;5069874;28;20176;-63
2021/11/15 03:03:21;;;;;;;50.57;27.57;;;7.50;99.90;;;;;;5069682;28;20208;-63
2021/11/15 03:05:50;;;;;;;49.27;28.67;;;7.60;99.90;;;;;;5069851;28;20161;-62
2021/11/15 03:08:17;;;;;;;45.93;26.93;;;7.60;99.90;;;;;;5069914;28;20169;-63
2021/11/15 03:10:44;;;;;;;50.53;28.20;;;7.70;99.90;;;;;;5069748;28;20164;-63
2021/11/15 03:13:12;;;;;;;48.63;27.83;;;7.70;99.90;;;;;;5069375;28;20231;-63
2021/11/15 03:15:44;;;;;;;43.70;25.40;;;7.80;99.90;;;;;;5069498;28;20184;-63
2021/11/15 03:18:14;;;;;;;42.30;25.57;;;7.80;99.90;;;;;;5069342;28;20156;-63
2021/11/15 03:20:43;;;;;;;43.13;26.20;;;7.90;99.90;;;;;;5069766;28;20153;-63
2021/11/15 03:23:11;;;;;;;47.47;26.60;;;8.00;99.90;;;;;;5069501;28;20185;-63
2021/11/15 03:25:38;;;;;;;40.80;25.60;;;8.10;99.90;;;;;;5069313;28;20232;-63
2021/11/15 03:28:06;;;;;;;45.30;26.10;;;8.20;99.90;;;;;;5069514;28;20171;-63
2021/11/15 03:30:32;;;;;;;45.63;26.17;;;8.20;99.90;;;;;;5069339;28;20247;-63
2021/11/15 03:32:59;;;;;;;48.00;27.20;;;8.40;99.90;;;;;;5069411;28;20168;-63
2021/11/15 03:35:25;;;;;;;47.93;27.60;;;8.40;99.90;;;;;;5068949;28;20194;-63
2021/11/15 03:37:51;;;;;;;53.43;30.17;;;8.40;99.90;;;;;;5069268;28;20165;-63
2021/11/15 03:40:21;;;;;;;60.13;30.97;;;8.40;99.90;;;;;;5069216;28;20160;-63
2021/11/15 03:42:48;;;;;;;54.47;29.70;;;8.40;99.90;;;;;;5069121;28;20209;-63
2021/11/15 03:45:15;;;;;;;49.13;28.73;;;8.50;99.90;;;;;;5068963;28;20167;-63
2021/11/15 03:47:42;;;;;;;53.47;29.30;;;8.50;99.90;;;;;;5069045;28;20217;-63
2021/11/15 03:50:11;;;;;;;56.73;30.60;;;8.50;99.90;;;;;;5068726;28;20164;-63
2021/11/15 03:52:38;;;;;;;54.00;30.33;;;8.50;99.90;;;;;;5067484;28;20175;-63
2021/11/15 03:55:08;;;;;;;57.83;30.17;;;8.60;99.90;;;;;;5068726;28;20161;-63
2021/11/15 03:57:34;;;;;;;53.87;30.90;;;8.70;99.90;;;;;;5066292;28;20513;-63
2021/11/15 03:59:59;;;;;;;57.70;30.53;;;8.80;99.90;;;;;;5068697;28;20187;-63
2021/11/15 04:02:27;;;;;;;56.73;30.97;;;8.90;99.90;;;;;;5068845;28;20184;-63
2021/11/15 04:04:59;;;;;;;53.80;30.07;;;8.90;99.90;;;;;;5068548;28;20169;-63
2021/11/15 04:07:28;;;;;;;54.50;30.43;;;8.80;99.90;;;;;;5068512;28;20529;-63
2021/11/15 04:09:58;;;;;;;54.30;30.20;;;8.70;99.90;;;;;;5068633;28;20606;-63
2021/11/15 04:12:25;;;;;;;53.77;29.97;;;8.80;99.90;;;;;;5068562;28;20165;-63
2021/11/15 04:14:52;;;;;;;51.53;29.27;;;8.90;99.90;;;;;;5068528;28;20165;-63
2021/11/15 04:17:18;;;;;;;53.00;28.17;;;8.90;99.90;;;;;;5068298;28;20622;-63
2021/11/15 04:19:44;;;;;;;56.07;30.23;;;8.80;99.90;;;;;;5068071;28;20177;-63
2021/11/15 04:22:10;;;;;;;52.80;30.23;;;8.80;99.90;;;;;;5068411;28;20188;-63
2021/11/15 04:24:35;;;;;;;50.90;28.83;;;8.80;99.90;;;;;;5067182;28;20161;-63
2021/11/15 04:27:01;;;;;;;55.67;29.27;;;8.80;99.90;;;;;;5068174;28;20187;-63
2021/11/15 04:29:29;;;;;;;53.50;28.70;;;8.80;99.90;;;;;;5068422;28;20642;-63
2021/11/15 04:31:54;;;;;;;51.50;28.90;;;8.80;99.90;;;;;;5067925;28;20244;-63
2021/11/15 04:34:20;;;;;;;52.27;29.07;;;8.80;99.90;;;;;;5066410;28;20164;-63
2021/11/15 04:36:45;;;;;;;48.10;27.20;;;8.90;99.90;;;;;;5067908;28;20177;-63
2021/11/15 04:39:11;;;;;;;48.73;27.53;;;9.00;99.90;;;;;;5068216;28;20179;-63
2021/11/15 04:41:38;;;;;;;54.30;28.20;;;9.00;99.90;;;;;;5068054;28;20169;-63
2021/11/15 04:44:04;;;;;;;50.27;26.00;;;9.00;99.90;;;;;;5068071;28;20192;-63
2021/11/15 04:46:30;;;;;;;54.20;29.50;;;9.10;99.90;;;;;;5067730;28;20176;-63
2021/11/15 04:48:55;;;;;;;66.47;34.27;;;9.10;99.90;;;;;;5067551;28;20585;-63
2021/11/15 04:51:21;;;;;;;77.33;36.70;;;9.00;99.90;;;;;;5068034;28;20196;-63
2021/11/15 04:53:47;;;;;;;84.07;39.93;;;9.10;99.90;;;;;;5066660;28;20256;-63
2021/11/15 04:56:12;;;;;;;99.33;43.87;;;9.10;99.90;;;;;;5067630;28;20399;-63
2021/11/15 04:58:38;;;;;;;100.40;45.73;;;9.20;99.90;;;;;;5067891;28;20251;-63
2021/11/15 05:01:05;;;;;;;119.97;50.33;;;9.30;99.90;;;;;;5067497;28;20319;-63
2021/11/15 05:03:31;;;;;;;108.33;48.00;;;9.30;99.90;;;;;;5066838;28;20310;-63
2021/11/15 05:05:57;;;;;;;119.45;54.42;;;9.30;99.90;;;;;;5067110;28;20411;-63
2021/11/15 05:08:23;;;;;;;106.17;47.57;;;9.40;99.90;;;;;;5066914;28;20169;-63
2021/11/15 05:10:49;;;;;;;102.77;45.67;;;9.50;99.90;;;;;;5067343;28;20184;-63
2021/11/15 05:13:14;;;;;;;99.00;45.03;;;9.50;99.90;;;;;;5066988;28;20216;-63
2021/11/15 05:15:40;;;;;;;112.60;54.57;;;9.60;99.90;;;;;;5066061;28;20415;-64
2021/11/15 05:18:06;;;;;;;100.30;46.20;;;9.80;99.90;;;;;;5067180;28;20535;-63
2021/11/15 05:20:32;;;;;;;99.87;47.67;;;9.80;99.90;;;;;;5067089;28;20172;-63
2021/11/15 05:22:57;;;;;;;99.93;47.00;;;9.80;99.90;;;;;;5067031;28;20272;-63
2021/11/15 05:25:25;;;;;;;109.80;55.53;;;9.80;99.90;;;;;;5065855;28;20452;-63
2021/11/15 05:27:51;;;;;;;98.53;45.95;;;10.10;99.90;;;;;;5065654;28;20160;-63
2021/11/15 05:30:18;;;;;;;100.35;45.20;;;10.10;99.90;;;;;;5067009;28;20244;-63
2021/11/15 05:32:45;;;;;;;98.07;45.95;;;10.10;99.90;;;;;;5066932;28;20626;-63
2021/11/15 05:35:11;;;;;;;90.47;43.90;;;10.00;99.90;;;;;;5066742;28;20168;-63
2021/11/15 05:37:37;;;;;;;83.77;42.80;;;9.90;99.90;;;;;;5066713;28;20203;-63
2021/11/15 05:40:05;;;;;;;83.03;42.80;;;10.00;99.90;;;;;;5066921;28;20215;-63
2021/11/15 05:42:30;;;;;;;86.40;42.45;;;9.90;99.90;;;;;;5066689;28;20191;-63
2021/11/15 05:44:56;;;;;;;82.55;42.88;;;9.90;99.90;;;;;;5066775;28;20161;-63
2021/11/15 05:47:22;;;;;;;94.23;45.33;;;9.90;99.90;;;;;;5066482;28;20173;-63
2021/11/15 05:49:47;;;;;;;89.05;43.10;;;10.00;99.90;;;;;;5066253;28;20200;-63
2021/11/15 05:52:15;;;;;;;82.43;42.97;;;9.90;99.90;;;;;;5066683;28;20221;-63
2021/11/15 05:54:41;;;;;;;82.97;41.85;;;9.90;99.90;;;;;;5065211;28;20168;-63
2021/11/15 05:57:06;;;;;;;76.90;42.72;;;9.90;99.90;;;;;;5066455;28;20255;-63
2021/11/15 05:59:32;;;;;;;82.55;41.47;;;10.00;99.90;;;;;;5066636;28;20161;-63
2021/11/15 06:01:58;;;;;;;83.05;39.35;;;10.00;99.90;;;;;;5066360;28;20165;-62
2021/11/15 06:04:23;;;;;;;77.00;40.40;;;10.00;99.90;;;;;;5066029;28;20228;-63
2021/11/15 06:06:51;;;;;;;80.20;41.37;;;10.00;99.90;;;;;;5066243;28;20298;-63
2021/11/15 06:09:17;;;;;;;84.55;41.60;;;9.90;99.90;;;;;;5066482;28;20165;-64
2021/11/15 06:11:43;;;;;;;78.50;39.70;;;10.00;99.90;;;;;;5066318;28;20239;-63
2021/11/15 06:14:09;;;;;;;75.25;39.70;;;9.80;99.90;;;;;;5066172;28;20219;-63
2021/11/15 06:16:34;;;;;;;78.97;44.35;;;9.80;99.90;;;;;;5065385;28;20912;-63
2021/11/15 06:19:00;;;;;;;79.00;40.70;;;9.90;99.90;;;;;;5065376;28;20203;-63
2021/11/15 06:21:26;;;;;;;70.83;36.97;;;10.00;99.90;;;;;;5066307;28;20169;-63
2021/11/15 06:23:51;;;;;;;71.45;38.25;;;10.00;99.90;;;;;;5066061;28;20287;-63
2021/11/15 06:26:17;;;;;;;74.40;38.53;;;10.00;99.90;;;;;;5065883;28;20196;-64
2021/11/15 06:28:46;;;;;;;74.55;38.35;;;10.00;99.90;;;;;;5066236;28;20227;-63
2021/11/15 06:31:13;;;;;;;73.53;38.63;;;10.10;99.90;;;;;;5066052;28;20163;-63
2021/11/15 06:33:39;;;;;;;75.22;38.15;;;10.00;99.90;;;;;;5065633;28;20173;-63
2021/11/15 06:36:05;;;;;;;70.77;38.03;;;10.00;99.90;;;;;;5065947;28;20183;-63
2021/11/15 06:38:31;;;;;;;71.68;39.22;;;10.10;99.90;;;;;;5066159;28;20168;-63
2021/11/15 06:40:56;;;;;;;68.78;37.30;;;10.10;99.90;;;;;;5065926;28;20157;-63
2021/11/15 06:43:22;;;;;;;67.90;36.60;;;10.10;99.90;;;;;;5066010;28;20556;-63
2021/11/15 06:45:48;;;;;;;67.97;36.75;;;10.10;99.90;;;;;;5065867;28;20641;-63
2021/11/15 06:48:13;;;;;;;67.32;36.63;;;10.10;99.90;;;;;;5065831;28;20169;-63
2021/11/15 06:50:39;;;;;;;66.00;36.15;;;10.00;99.90;;;;;;5065860;28;20168;-63
2021/11/15 06:53:05;;;;;;;70.20;37.97;;;10.00;99.90;;;;;;5065796;28;20184;-63
2021/11/15 06:55:31;;;;;;;64.05;36.45;;;10.00;99.90;;;;;;5065822;28;20197;-63
2021/11/15 06:57:57;;;;;;;67.20;35.00;;;10.00;99.90;;;;;;5065743;28;20179;-64
2021/11/15 07:00:25;;;;;;;71.70;36.28;;;10.00;99.90;;;;;;5066001;28;20169;-63
2021/11/15 07:02:53;;;;;;;73.68;34.05;;;10.00;99.90;;;;;;5065533;28;20592;-63
2021/11/15 07:05:21;;;;;;;65.97;35.53;;;10.00;99.90;;;;;;5065375;28;20165;-63
2021/11/15 07:07:49;;;;;;;61.40;32.53;;;10.00;99.90;;;;;;5065672;28;20244;-63
2021/11/15 07:10:16;;;;;;;58.83;32.90;;;10.00;99.90;;;;;;5065803;28;20165;-63
2021/11/15 07:12:42;;;;;;;62.05;32.45;;;10.00;99.90;;;;;;5065493;28;20247;-63
2021/11/15 07:15:09;;;;;;;65.80;33.67;;;10.00;99.90;;;;;;5064355;28;20169;-63
2021/11/15 07:17:35;;;;;;;62.08;33.13;;;10.00;99.90;;;;;;5065524;28;20185;-63
2021/11/15 07:20:03;;;;;;;57.72;31.30;;;10.00;99.90;;;;;;5065196;28;20212;-63
2021/11/15 07:22:28;;;;;;;59.42;31.73;;;10.00;99.90;;;;;;5065717;28;20214;-63
2021/11/15 07:24:54;;;;;;;60.63;31.87;;;10.10;99.90;;;;;;5065591;28;20196;-63
2021/11/15 07:27:20;;;;;;;61.92;32.75;;;10.10;99.90;;;;;;5065376;28;20161;-63
2021/11/15 07:29:45;;;;;;;61.13;33.03;;;10.10;99.90;;;;;;5065683;28;20222;-63
2021/11/15 07:32:13;;;;;;;58.47;31.58;;;10.10;99.90;;;;;;5068774;28;20196;-63
2021/11/15 07:34:40;;;;;;;59.13;32.28;;;10.20;99.90;;;;;;5068779;28;20168;-63
2021/11/15 07:37:07;;;;;;;58.10;32.47;;;10.10;99.90;;;;;;5068991;28;20181;-63
2021/11/15 07:39:42;;;;;;;61.45;32.97;;;10.10;99.90;;;;;;5067934;28;20168;-63
2021/11/15 07:42:11;;;;;;;60.20;31.63;;;10.20;99.90;;;;;;5068990;28;20166;-63
2021/11/15 07:44:37;;;;;;;58.88;31.63;;;10.20;99.90;;;;;;5069215;28;20164;-63
2021/11/15 07:47:03;;;;;;;57.10;31.93;;;10.20;99.90;;;;;;5068662;28;20232;-63
2021/11/15 07:49:29;;;;;;;55.97;30.30;;;10.20;99.90;;;;;;5068640;28;20176;-63
2021/11/15 07:51:55;;;;;;;61.42;31.75;;;10.20;99.90;;;;;;5069059;28;20193;-63
2021/11/15 07:54:20;;;;;;;60.50;30.52;;;10.20;99.90;;;;;;5068743;28;20168;-63
2021/11/15 07:56:46;;;;;;;55.45;30.60;;;10.20;99.90;;;;;;5068667;28;20177;-63
2021/11/15 07:59:11;;;;;;;56.67;29.55;;;10.20;99.90;;;;;;5068851;28;20190;-63
2021/11/15 08:01:37;;;;;;;52.85;30.10;;;10.20;99.90;;;;;;5068162;28;20160;-63
2021/11/15 08:04:03;;;;;;;57.47;28.55;;;10.30;99.90;;;;;;5067765;28;20729;-63
2021/11/15 08:06:29;;;;;;;55.08;29.23;;;10.30;99.90;;;;;;5068175;28;20195;-63
2021/11/15 08:08:54;;;;;;;60.25;28.88;;;10.30;99.90;;;;;;5068667;28;20196;-63
2021/11/15 08:11:22;;;;;;;56.38;29.20;;;10.30;99.90;;;;;;5068305;28;20172;-63
2021/11/15 08:13:47;;;;;;;57.35;30.23;;;10.20;99.90;;;;;;5068264;28;20293;-63
2021/11/15 08:16:13;;;;;;;51.95;29.42;;;10.30;99.90;;;;;;5066964;28;20185;-63
2021/11/15 08:18:40;;;;;;;55.28;28.05;;;10.30;99.90;;;;;;5067940;28;20168;-63
2021/11/15 08:21:12;;;;;;;46.38;27.15;;;10.30;99.90;;;;;;5068523;28;20137;-64
2021/11/15 08:23:38;;;;;;;44.93;25.90;;;10.30;99.90;;;;;;5066812;28;20207;-63
2021/11/15 08:26:07;;;;;;;50.63;26.27;;;10.30;99.90;;;;;;5067087;28;20191;-63
2021/11/15 08:28:35;;;;;;;48.30;27.05;;;10.30;99.90;;;;;;5068315;28;20161;-63
2021/11/15 08:31:03;;;;;;;55.85;25.73;;;10.30;99.90;;;;;;5068448;28;20157;-63
2021/11/15 08:33:30;;;;;;;47.53;26.13;;;10.40;99.90;;;;;;5067660;28;20167;-63
2021/11/15 08:35:57;;;;;;;58.10;25.52;;;10.30;99.90;;;;;;5068095;28;20176;-63
2021/11/15 08:38:43;;;;;;;55.60;26.00;;;10.30;99.90;;;;;;5068091;28;20184;-63
2021/11/15 08:41:10;;;;;;;45.83;25.33;;;10.40;99.90;;;;;;5068200;28;20174;-63
2021/11/15 08:43:36;;;;;;;49.40;24.88;;;10.40;99.90;;;;;;5067283;28;20184;-63
2021/11/15 08:46:03;;;;;;;48.50;25.60;;;10.40;99.90;;;;;;5067979;28;20172;-63
2021/11/15 08:48:29;;;;;;;48.95;26.05;;;10.50;99.90;;;;;;5067636;28;20160;-63
2021/11/15 08:50:55;;;;;;;50.78;26.40;;;10.10;99.90;;;;;;5067930;28;20252;-63
2021/11/15 08:53:21;;;;;;;45.95;26.73;;;10.20;99.90;;;;;;5067757;28;20160;-63
2021/11/15 08:55:46;;;;;;;53.80;26.45;;;10.30;99.90;;;;;;5067472;28;20196;-63
2021/11/15 08:58:12;;;;;;;44.58;25.23;;;10.30;99.90;;;;;;5067729;28;20169;-63
2021/11/15 09:00:40;;;;;;;48.10;25.65;;;10.40;99.90;;;;;;5067816;28;20165;-63
2021/11/15 09:03:06;;;;;;;51.50;25.77;;;10.40;99.90;;;;;;5067305;28;20615;-63
2021/11/15 09:05:32;;;;;;;49.10;24.77;;;10.40;99.90;;;;;;5067258;28;20232;-63
2021/11/15 09:07:57;;;;;;;43.92;24.52;;;10.50;99.90;;;;;;5067388;28;20172;-63
2021/11/15 09:10:23;;;;;;;43.75;24.20;;;10.50;99.90;;;;;;5067515;28;20192;-63
2021/11/15 09:12:49;;;;;;;47.08;24.92;;;10.50;99.90;;;;;;5065732;28;20216;-63
2021/11/15 09:15:16;;;;;;;48.42;25.95;;;10.50;99.90;;;;;;5067311;28;20220;-63
2021/11/15 09:17:44;;;;;;;47.50;25.42;;;10.50;99.90;;;;;;5067022;28;20176;-63
2021/11/15 09:20:10;;;;;;;47.85;24.98;;;10.50;99.90;;;;;;5066524;28;20165;-63
2021/11/15 09:22:38;;;;;;;47.80;25.25;;;10.50;99.90;;;;;;5067050;28;20238;-64
2021/11/15 09:25:04;;;;;;;46.45;25.00;;;10.50;99.90;;;;;;5067003;28;20214;-63
2021/11/15 09:27:31;;;;;;;49.13;24.73;;;10.60;99.90;;;;;;5066925;28;20153;-63
2021/11/15 09:29:57;;;;;;;48.83;26.15;;;10.60;99.90;;;;;;5065259;28;20161;-63
2021/11/15 09:32:23;;;;;;;50.45;24.98;;;10.70;99.90;;;;;;5066600;28;20171;-63
2021/11/15 09:34:49;;;;;;;46.58;24.77;;;10.70;99.90;;;;;;5066440;28;20180;-63
2021/11/15 09:37:17;;;;;;;46.65;24.40;;;10.70;99.90;;;;;;5066946;28;20164;-63
2021/11/15 09:39:45;;;;;;;54.95;25.50;;;10.80;99.90;;;;;;5066755;28;20161;-63
2021/11/15 09:42:14;;;;;;;48.58;24.15;;;10.70;99.90;;;;;;5066567;28;20161;-63
2021/11/15 09:44:41;;;;;;;50.78;25.45;;;10.80;99.90;;;;;;5066935;28;20165;-63
2021/11/15 09:47:07;;;;;;;51.92;25.60;;;10.80;99.90;;;;;;5066441;28;20165;-64
2021/11/15 09:49:33;;;;;;;51.33;25.20;;;10.80;99.90;;;;;;5066280;28;20168;-63
2021/11/15 09:51:59;;;;;;;43.45;24.20;;;10.80;99.90;;;;;;5066823;28;20196;-63
2021/11/15 09:54:25;;;;;;;47.30;23.75;;;10.80;99.90;;;;;;5065745;28;20181;-63
2021/11/15 09:56:55;;;;;;;45.08;23.40;;;10.70;99.90;;;;;;5066336;28;20216;-63
2021/11/15 09:59:24;;;;;;;45.33;23.45;;;10.80;99.90;;;;;;5066596;28;20145;-63
2021/11/15 10:01:52;;;;;;;48.05;24.55;;;10.70;99.90;;;;;;5066599;28;20161;-63
2021/11/15 10:04:19;;;;;;;45.33;23.95;;;10.80;99.90;;;;;;5065735;28;20196;-63
2021/11/15 10:06:52;;;;;;;45.03;24.27;;;10.80;99.90;;;;;;5066142;28;20207;-63
2021/11/15 10:09:29;;;;;;;47.58;23.77;;;10.80;99.90;;;;;;5066377;28;20149;-63
2021/11/15 10:11:56;;;;;;;41.75;23.23;;;10.70;99.90;;;;;;5066118;28;20216;-63
2021/11/15 10:14:22;;;;;;;42.88;22.85;;;10.70;99.90;;;;;;5065260;28;20219;-63
2021/11/15 10:16:49;;;;;;;49.60;23.95;;;10.70;99.90;;;;;;5064693;28;20184;-64
2021/11/15 10:19:15;;;;;;;57.35;25.67;;;10.80;99.90;;;;;;5065720;28;20172;-63
2021/11/15 10:21:54;;;;;;;49.85;26.20;;;10.80;99.90;;;;;;5066146;28;20164;-63
2021/11/15 10:24:34;;;;;;;49.63;24.60;;;10.80;99.90;;;;;;5065395;28;20625;-64
2021/11/15 10:27:07;;;;;;;51.83;25.35;;;10.90;99.90;;;;;;5065656;28;20164;-64
2021/11/15 10:29:39;;;;;;;51.33;25.42;;;10.80;99.90;;;;;;5065196;28;20171;-63
2021/11/15 10:32:07;;;;;;;55.60;25.38;;;10.80;99.90;;;;;;5065971;28;20220;-63
2021/11/15 10:34:37;;;;;;;51.47;24.83;;;10.80;99.90;;;;;;5065260;28;20176;-63
2021/11/15 10:37:14;;;;;;;51.05;25.60;;;10.70;99.90;;;;;;5065256;28;20195;-64
2021/11/15 10:39:44;;;;;;;44.30;24.08;;;10.70;99.90;;;;;;5065620;28;20574;-63
2021/11/15 10:42:22;;;;;;;48.63;24.25;;;10.70;99.90;;;;;;5065892;28;20153;-63
2021/11/15 10:45:13;;;;;;;41.55;22.27;;;10.80;99.90;;;;;;5065944;28;20147;-64
2021/11/15 10:47:54;;;;;;;47.15;23.42;;;11.00;99.90;;;;;;5065823;28;20630;-64
2021/11/15 10:50:50;;;;;;;56.55;27.20;;;11.00;99.90;;;;;;5064400;28;20196;-63
2021/11/15 10:56:29;;;;;;;54.80;26.77;;;11.00;99.90;;;;;;5066050;28;20183;-63
2021/11/15 10:58:55;;;;;;;53.40;26.65;;;11.00;99.90;;;;;;5063337;28;20180;-63
2021/11/15 11:01:29;;;;;;;57.03;27.73;;;11.00;99.90;;;;;;5065676;28;20228;-63
2021/11/15 11:04:16;;;;;;;60.65;27.95;;;11.00;99.90;;;;;;5065337;28;20245;-63
2021/11/15 11:07:06;;;;;;;54.58;27.05;;;11.00;99.90;;;;;;5067401;28;20171;-64
2021/11/15 11:09:41;;;;;;;50.25;26.35;;;11.00;99.90;;;;;;5069507;28;20137;-63
2021/11/15 11:12:20;;;;;;;53.70;25.77;;;11.10;99.90;;;;;;5069142;28;20247;-63
2021/11/15 11:14:46;;;;;;;45.33;23.73;;;11.00;99.90;;;;;;5067687;28;20616;-63
2021/11/15 11:17:12;;;;;;;44.17;23.40;;;11.10;99.90;;;;;;5068518;28;20198;-63
2021/11/15 11:20:10;;;;;;;39.15;22.00;;;11.00;99.90;;;;;;5069217;28;20193;-64
2021/11/15 11:23:07;;;;;;;39.92;22.13;;;11.00;99.90;;;;;;5069528;28;20234;-63
2021/11/15 11:25:26;;;;;;;49.75;23.88;;;11.00;99.90;;;;;;5068817;28;20256;-63
2021/11/15 11:27:55;;;;;;;51.72;24.98;;;10.90;99.90;;;;;;5069378;28;20157;-64
2021/11/15 11:30:21;;;;;;;49.83;24.50;;;10.90;99.90;;;;;;5069467;28;20211;-63
2021/11/15 11:32:51;;;;;;;45.28;23.50;;;10.90;99.90;;;;;;5069141;28;20212;-63
2021/11/15 11:35:17;;;;;;;43.42;23.38;;;10.90;99.90;;;;;;5067817;28;20173;-63
2021/11/15 11:37:43;;;;;;;56.72;26.73;;;10.90;99.90;;;;;;5068275;28;20180;-63
2021/11/15 11:40:09;;;;;;;59.85;27.25;;;11.00;99.90;;;;;;5068870;28;20168;-64
2021/11/15 11:42:34;;;;;;;48.22;25.98;;;11.10;99.90;;;;;;5068666;28;20192;-63
2021/11/15 11:45:04;;;;;;;53.17;25.80;;;11.20;99.90;;;;;;5067860;28;20172;-63
2021/11/15 11:47:30;;;;;;;48.05;23.90;;;11.20;99.90;;;;;;5068539;28;20176;-63
2021/11/15 11:49:59;;;;;;;51.40;25.10;;;11.20;99.90;;;;;;5067154;28;20161;-63
2021/11/15 11:52:29;;;;;;;54.50;24.75;;;11.10;99.90;;;;;;5068609;28;20230;-63
2021/11/15 11:54:56;;;;;;;57.40;26.75;;;11.00;99.90;;;;;;5068698;28;20164;-63
2021/11/15 11:57:32;;;;;;;43.85;24.90;;;11.00;99.90;;;;;;5068504;28;20173;-63
2021/11/15 12:00:00;;;;;;;48.72;25.48;;;11.10;99.90;;;;;;5068616;28;20141;-64
2021/11/15 12:02:28;;;;;;;53.30;25.63;;;11.00;99.90;;;;;;5068036;28;20199;-63
2021/11/15 12:05:04;;;;;;;52.90;25.60;;;11.00;99.90;;;;;;5067750;28;20415;-63
2021/11/15 12:07:32;;;;;;;50.35;26.55;;;11.10;99.90;;;;;;5068521;28;20164;-63
2021/11/15 12:10:11;;;;;;;55.67;25.67;;;11.10;99.90;;;;;;5068765;28;20176;-63
2021/11/15 12:12:52;;;;;;;55.42;26.65;;;11.10;99.90;;;;;;5066889;28;20526;-63
2021/11/15 12:15:29;;;;;;;54.30;25.70;;;11.10;99.90;;;;;;5068580;28;20184;-63
2021/11/15 12:18:22;;;;;;;53.75;26.73;;;11.00;99.90;;;;;;5067053;28;20196;-63
2021/11/15 12:21:04;;;;;;;49.72;24.77;;;10.90;99.90;;;;;;5068024;28;20169;-63
2021/11/15 12:23:55;;;;;;;55.30;27.05;;;10.80;99.90;;;;;;5067339;28;20188;-63
2021/11/15 12:26:42;;;;;;;54.03;25.58;;;10.80;99.90;;;;;;5059105;28;20169;-64
2021/11/15 12:29:29;;;;;;;60.95;31.13;;;10.80;99.90;;;;;;5067588;28;20414;-63
2021/11/15 12:31:59;;;;;;;55.70;27.05;;;10.90;99.90;;;;;;5067938;28;20211;-64
2021/11/15 12:34:27;;;;;;;54.80;25.98;;;10.80;99.90;;;;;;5067256;28;20169;-63
2021/11/15 12:36:55;;;;;;;54.20;26.30;;;10.80;99.90;;;;;;5066787;28;20180;-63